createdAt,value
2017-12-11T00:00:31.782Z,0
2017-12-11T00:01:12.318Z,0
2017-12-11T00:01:52.855Z,0
2017-12-11T00:02:33.409Z,0
2017-12-11T00:03:13.937Z,0
2017-12-11T00:03:54.531Z,0
2017-12-11T00:04:35.118Z,0
2017-12-11T00:05:15.609Z,0
2017-12-11T00:05:56.132Z,0
2017-12-11T00:06:36.691Z,0
2017-12-11T00:07:17.188Z,0
2017-12-11T00:07:57.720Z,0
2017-12-11T00:08:38.267Z,0
2017-12-11T00:09:18.799Z,0
2017-12-11T00:09:59.363Z,0
2017-12-11T00:10:39.917Z,0
2017-12-11T00:11:20.441Z,0
2017-12-11T00:12:00.987Z,0
2017-12-11T00:12:41.522Z,0
2017-12-11T00:13:22.108Z,0
2017-12-11T00:14:02.709Z,0
2017-12-11T00:14:43.183Z,0
2017-12-11T00:15:23.741Z,0
2017-12-11T00:16:04.274Z,0
2017-12-11T00:16:44.787Z,0
2017-12-11T00:17:25.346Z,0
2017-12-11T00:18:05.844Z,0
2017-12-11T00:18:46.410Z,0
2017-12-11T00:19:26.933Z,0
2017-12-11T00:20:07.455Z,0
2017-12-11T00:20:48.034Z,0
2017-12-11T00:21:28.584Z,0
2017-12-11T00:22:09.111Z,0
2017-12-11T00:22:49.710Z,0
2017-12-11T00:23:30.241Z,0
2017-12-11T00:24:10.740Z,0
2017-12-11T00:24:51.307Z,0
2017-12-11T00:25:31.867Z,0
2017-12-11T00:26:12.364Z,0
2017-12-11T00:26:52.890Z,0
2017-12-11T00:27:33.444Z,0
2017-12-11T00:28:13.941Z,0
2017-12-11T00:28:54.468Z,0
2017-12-11T00:29:35.038Z,0
2017-12-11T00:30:15.561Z,0
2017-12-11T00:30:56.161Z,0
2017-12-11T00:31:36.827Z,0
2017-12-11T00:32:17.336Z,0
2017-12-11T00:32:57.852Z,0
2017-12-11T00:33:38.427Z,0
2017-12-11T00:34:18.937Z,0
2017-12-11T00:34:59.453Z,0
2017-12-11T00:35:40.000Z,0
2017-12-11T00:36:20.509Z,0
2017-12-11T00:37:01.104Z,0
2017-12-11T00:37:41.600Z,0
2017-12-11T00:38:22.156Z,0
2017-12-11T00:39:02.678Z,0
2017-12-11T00:39:43.210Z,0
2017-12-11T00:40:23.796Z,0
2017-12-11T00:41:04.302Z,0
2017-12-11T00:41:44.889Z,0
2017-12-11T00:42:25.424Z,0
2017-12-11T00:43:05.944Z,0
2017-12-11T00:43:46.551Z,0
2017-12-11T00:44:27.064Z,0
2017-12-11T00:45:07.606Z,0
2017-12-11T00:45:48.179Z,0
2017-12-11T00:46:28.689Z,0
2017-12-11T00:47:09.276Z,0
2017-12-11T00:47:49.777Z,0
2017-12-11T00:48:30.319Z,0
2017-12-11T00:49:10.840Z,0
2017-12-11T00:49:51.354Z,0
2017-12-11T00:50:31.931Z,0
2017-12-11T00:51:12.424Z,0
2017-12-11T00:51:52.974Z,0
2017-12-11T00:52:33.573Z,0
2017-12-11T00:53:14.087Z,0
2017-12-11T00:53:54.655Z,0
2017-12-11T00:54:35.236Z,0
2017-12-11T00:55:15.731Z,0
2017-12-11T00:55:56.275Z,0
2017-12-11T00:56:36.841Z,0
2017-12-11T00:57:17.441Z,0
2017-12-11T00:57:57.951Z,0
2017-12-11T00:58:38.479Z,0
2017-12-11T00:59:19.013Z,0
2017-12-11T00:59:59.539Z,0
2017-12-11T01:00:40.031Z,0
2017-12-11T01:01:20.593Z,0
2017-12-11T01:02:01.151Z,0
2017-12-11T01:02:41.678Z,0
2017-12-11T01:03:22.255Z,0
2017-12-11T01:04:02.787Z,0
2017-12-11T01:04:43.360Z,0
2017-12-11T01:05:23.864Z,0
2017-12-11T01:06:04.468Z,0
2017-12-11T01:06:44.968Z,0
2017-12-11T01:07:25.514Z,0
2017-12-11T01:08:06.165Z,0
2017-12-11T01:08:46.656Z,0
2017-12-11T01:09:27.226Z,0
2017-12-11T01:10:07.710Z,0
2017-12-11T01:10:48.262Z,0
2017-12-11T01:11:28.792Z,0
2017-12-11T01:12:09.341Z,0
2017-12-11T01:12:49.880Z,0
2017-12-11T01:13:30.448Z,0
2017-12-11T01:14:10.997Z,0
2017-12-11T01:14:51.531Z,0
2017-12-11T01:15:32.135Z,0
2017-12-11T01:16:12.648Z,0
2017-12-11T01:16:53.261Z,0
2017-12-11T01:17:33.732Z,0
2017-12-11T01:18:14.259Z,0
2017-12-11T01:18:54.787Z,0
2017-12-11T01:19:35.367Z,0
2017-12-11T01:20:15.884Z,0
2017-12-11T01:20:56.450Z,0
2017-12-11T01:21:37.015Z,0
2017-12-11T01:22:17.537Z,0
2017-12-11T01:22:58.117Z,0
2017-12-11T01:23:38.662Z,0
2017-12-11T01:24:19.178Z,0
2017-12-11T01:24:59.718Z,0
2017-12-11T01:25:40.242Z,0
2017-12-11T01:26:20.789Z,0
2017-12-11T01:27:01.312Z,0
2017-12-11T01:27:41.844Z,0
2017-12-11T01:28:22.407Z,0
2017-12-11T01:29:02.975Z,0
2017-12-11T01:29:43.515Z,0
2017-12-11T01:30:24.021Z,0
2017-12-11T01:31:04.562Z,0
2017-12-11T01:31:45.112Z,0
2017-12-11T01:32:25.659Z,0
2017-12-11T01:33:06.196Z,0
2017-12-11T01:33:46.771Z,0
2017-12-11T01:34:27.259Z,0
2017-12-11T01:35:07.765Z,0
2017-12-11T01:35:48.295Z,0
2017-12-11T01:36:28.891Z,0
2017-12-11T01:37:09.461Z,0
2017-12-11T01:37:49.968Z,0
2017-12-11T01:38:30.499Z,0
2017-12-11T01:39:11.071Z,0
2017-12-11T01:39:51.634Z,0
2017-12-11T01:40:32.151Z,0
2017-12-11T01:41:12.692Z,0
2017-12-11T01:41:53.228Z,0
2017-12-11T01:42:33.804Z,0
2017-12-11T01:43:14.332Z,0
2017-12-11T01:43:54.869Z,0
2017-12-11T01:44:35.404Z,0
2017-12-11T01:45:15.935Z,0
2017-12-11T01:45:56.471Z,0
2017-12-11T01:46:36.973Z,0
2017-12-11T01:47:17.520Z,0
2017-12-11T01:47:58.081Z,0
2017-12-11T01:48:38.679Z,0
2017-12-11T01:49:19.178Z,0
2017-12-11T01:49:59.754Z,0
2017-12-11T01:50:40.261Z,0
2017-12-11T01:51:20.827Z,0
2017-12-11T01:52:01.361Z,0
2017-12-11T01:52:41.942Z,0
2017-12-11T01:53:22.476Z,0
2017-12-11T01:54:03.015Z,0
2017-12-11T01:54:43.570Z,0
2017-12-11T01:55:24.141Z,0
2017-12-11T01:56:04.677Z,0
2017-12-11T01:56:45.203Z,0
2017-12-11T01:57:25.772Z,0
2017-12-11T01:58:06.276Z,0
2017-12-11T01:58:46.797Z,0
2017-12-11T01:59:27.355Z,0
2017-12-11T02:00:07.873Z,0
2017-12-11T02:00:48.454Z,0
2017-12-11T02:01:28.996Z,0
2017-12-11T02:02:09.541Z,0
2017-12-11T02:02:50.072Z,0
2017-12-11T02:03:30.652Z,0
2017-12-11T02:04:11.178Z,0
2017-12-11T02:04:51.655Z,0
2017-12-11T02:05:32.215Z,0
2017-12-11T02:06:12.757Z,0
2017-12-11T02:06:53.301Z,0
2017-12-11T02:07:33.846Z,0
2017-12-11T02:08:14.355Z,0
2017-12-11T02:08:54.918Z,0
2017-12-11T02:09:35.438Z,0
2017-12-11T02:10:16.006Z,0
2017-12-11T02:10:56.520Z,0
2017-12-11T02:11:37.062Z,0
2017-12-11T02:12:17.621Z,0
2017-12-11T02:12:58.171Z,0
2017-12-11T02:13:38.715Z,0
2017-12-11T02:14:19.281Z,0
2017-12-11T02:14:59.819Z,0
2017-12-11T02:15:40.385Z,0
2017-12-11T02:16:20.959Z,0
2017-12-11T02:17:01.498Z,0
2017-12-11T02:17:42.060Z,0
2017-12-11T02:18:22.589Z,0
2017-12-11T02:19:03.123Z,0
2017-12-11T02:19:43.650Z,0
2017-12-11T02:20:24.167Z,0
2017-12-11T02:21:04.697Z,0
2017-12-11T02:21:45.240Z,0
2017-12-11T02:22:25.766Z,0
2017-12-11T02:23:06.318Z,0
2017-12-11T02:23:46.825Z,0
2017-12-11T02:24:27.388Z,0
2017-12-11T02:25:07.915Z,0
2017-12-11T02:25:48.436Z,0
2017-12-11T02:26:28.962Z,0
2017-12-11T02:27:09.462Z,0
2017-12-11T02:27:49.987Z,0
2017-12-11T02:28:30.551Z,0
2017-12-11T02:29:11.081Z,0
2017-12-11T02:29:51.623Z,0
2017-12-11T02:30:32.169Z,0
2017-12-11T02:31:12.705Z,0
2017-12-11T02:31:53.301Z,0
2017-12-11T02:32:33.860Z,0
2017-12-11T02:33:14.411Z,0
2017-12-11T02:33:54.922Z,0
2017-12-11T02:34:35.446Z,0
2017-12-11T02:35:16.065Z,0
2017-12-11T02:35:56.547Z,0
2017-12-11T02:36:37.129Z,0
2017-12-11T02:37:17.615Z,0
2017-12-11T02:37:58.157Z,0
2017-12-11T02:38:38.681Z,0
2017-12-11T02:39:19.227Z,0
2017-12-11T02:39:59.797Z,0
2017-12-11T02:40:40.301Z,0
2017-12-11T02:41:20.864Z,0
2017-12-11T02:42:01.388Z,0
2017-12-11T02:42:41.957Z,0
2017-12-11T02:43:22.516Z,0
2017-12-11T02:44:03.029Z,0
2017-12-11T02:44:43.596Z,0
2017-12-11T02:45:24.159Z,0
2017-12-11T02:46:04.649Z,0
2017-12-11T02:46:45.196Z,0
2017-12-11T02:47:25.752Z,0
2017-12-11T02:48:06.279Z,0
2017-12-11T02:48:46.810Z,0
2017-12-11T02:49:27.402Z,0
2017-12-11T02:50:07.981Z,0
2017-12-11T02:50:48.509Z,0
2017-12-11T02:51:29.038Z,0
2017-12-11T02:52:09.590Z,0
2017-12-11T02:52:50.124Z,0
2017-12-11T02:53:30.666Z,0
2017-12-11T02:54:11.210Z,0
2017-12-11T02:54:51.761Z,0
2017-12-11T02:55:32.464Z,0
2017-12-11T02:56:13.012Z,0
2017-12-11T02:56:53.499Z,0
2017-12-11T02:57:34.094Z,0
2017-12-11T02:58:14.630Z,0
2017-12-11T02:58:55.168Z,0
2017-12-11T02:59:35.725Z,0
2017-12-11T03:00:16.260Z,0
2017-12-11T03:00:56.834Z,0
2017-12-11T03:01:37.360Z,0
2017-12-11T03:02:17.913Z,0
2017-12-11T03:02:58.465Z,0
2017-12-11T03:03:39.028Z,0
2017-12-11T03:04:19.599Z,0
2017-12-11T03:05:00.158Z,0
2017-12-11T03:05:40.658Z,0
2017-12-11T03:06:21.207Z,0
2017-12-11T03:07:01.733Z,0
2017-12-11T03:07:42.269Z,0
2017-12-11T03:08:22.778Z,0
2017-12-11T03:09:03.351Z,0
2017-12-11T03:09:43.904Z,0
2017-12-11T03:10:24.422Z,0
2017-12-11T03:11:04.917Z,0
2017-12-11T03:11:45.451Z,0
2017-12-11T03:12:25.985Z,0
2017-12-11T03:13:06.525Z,0
2017-12-11T03:13:47.029Z,0
2017-12-11T03:14:27.569Z,0
2017-12-11T03:15:08.090Z,0
2017-12-11T03:15:48.617Z,0
2017-12-11T03:16:29.198Z,0
2017-12-11T03:17:09.707Z,0
2017-12-11T03:17:50.274Z,0
2017-12-11T03:18:30.781Z,0
2017-12-11T03:19:11.336Z,0
2017-12-11T03:19:51.874Z,0
2017-12-11T03:20:32.418Z,0
2017-12-11T03:21:12.963Z,0
2017-12-11T03:21:53.502Z,0
2017-12-11T03:22:34.002Z,0
2017-12-11T03:23:14.536Z,0
2017-12-11T03:23:55.086Z,0
2017-12-11T03:24:35.624Z,0
2017-12-11T03:25:16.183Z,0
2017-12-11T03:25:56.687Z,0
2017-12-11T03:26:37.258Z,0
2017-12-11T03:27:17.762Z,0
2017-12-11T03:27:58.331Z,0
2017-12-11T03:28:38.879Z,0
2017-12-11T03:29:19.421Z,0
2017-12-11T03:29:59.954Z,0
2017-12-11T03:30:40.515Z,0
2017-12-11T03:31:21.017Z,0
2017-12-11T03:32:01.566Z,0
2017-12-11T03:32:42.067Z,0
2017-12-11T03:33:22.605Z,0
2017-12-11T03:34:03.141Z,0
2017-12-11T03:34:43.663Z,0
2017-12-11T03:35:24.248Z,0
2017-12-11T03:36:04.778Z,0
2017-12-11T03:36:45.317Z,0
2017-12-11T03:37:25.829Z,0
2017-12-11T03:38:06.406Z,0
2017-12-11T03:38:46.894Z,0
2017-12-11T03:39:27.424Z,0
2017-12-11T03:40:07.974Z,0
2017-12-11T03:40:48.536Z,0
2017-12-11T03:41:29.048Z,0
2017-12-11T03:42:09.616Z,0
2017-12-11T03:42:50.134Z,0
2017-12-11T03:43:30.698Z,0
2017-12-11T03:44:11.201Z,0
2017-12-11T03:44:51.741Z,0
2017-12-11T03:45:32.281Z,0
2017-12-11T03:46:12.849Z,0
2017-12-11T03:46:53.372Z,0
2017-12-11T03:47:33.900Z,0
2017-12-11T03:48:14.423Z,0
2017-12-11T03:48:54.970Z,0
2017-12-11T03:49:35.471Z,0
2017-12-11T03:50:15.985Z,0
2017-12-11T03:50:56.532Z,0
2017-12-11T03:51:37.059Z,0
2017-12-11T03:52:17.631Z,0
2017-12-11T03:52:58.111Z,0
2017-12-11T03:53:38.624Z,0
2017-12-11T03:54:19.194Z,0
2017-12-11T03:54:59.718Z,0
2017-12-11T03:55:40.274Z,0
2017-12-11T03:56:20.783Z,0
2017-12-11T03:57:01.327Z,0
2017-12-11T03:57:41.882Z,0
2017-12-11T03:58:22.409Z,0
2017-12-11T03:59:02.953Z,0
2017-12-11T03:59:43.477Z,0
2017-12-11T04:00:24.034Z,0
2017-12-11T04:01:04.559Z,0
2017-12-11T04:01:45.076Z,0
2017-12-11T04:02:25.630Z,0
2017-12-11T04:03:06.188Z,0
2017-12-11T04:03:46.734Z,0
2017-12-11T04:04:27.288Z,0
2017-12-11T04:05:07.830Z,0
2017-12-11T04:05:48.368Z,0
2017-12-11T04:06:28.896Z,0
2017-12-11T04:07:09.405Z,0
2017-12-11T04:07:49.969Z,0
2017-12-11T04:08:30.490Z,0
2017-12-11T04:09:11.120Z,0
2017-12-11T04:09:51.645Z,0
2017-12-11T04:10:32.187Z,0
2017-12-11T04:11:12.679Z,0
2017-12-11T04:11:53.231Z,0
2017-12-11T04:12:33.817Z,0
2017-12-11T04:13:14.338Z,0
2017-12-11T04:13:54.853Z,0
2017-12-11T04:14:35.335Z,0
2017-12-11T04:15:15.881Z,0
2017-12-11T04:15:56.405Z,0
2017-12-11T04:16:36.936Z,0
2017-12-11T04:17:17.481Z,0
2017-12-11T04:17:58.017Z,0
2017-12-11T04:18:38.534Z,0
2017-12-11T04:19:19.120Z,0
2017-12-11T04:19:59.614Z,0
2017-12-11T04:20:40.173Z,0
2017-12-11T04:21:20.716Z,0
2017-12-11T04:22:01.256Z,0
2017-12-11T04:22:41.797Z,0
2017-12-11T04:23:22.414Z,0
2017-12-11T04:24:02.868Z,0
2017-12-11T04:24:43.412Z,0
2017-12-11T04:25:23.953Z,0
2017-12-11T04:26:04.491Z,0
2017-12-11T04:26:45.059Z,0
2017-12-11T04:27:25.569Z,0
2017-12-11T04:28:06.078Z,0
2017-12-11T04:28:46.633Z,0
2017-12-11T04:29:27.172Z,0
2017-12-11T04:30:07.717Z,0
2017-12-11T04:30:48.236Z,0
2017-12-11T04:31:28.792Z,0
2017-12-11T04:32:09.353Z,0
2017-12-11T04:32:49.843Z,0
2017-12-11T04:33:30.355Z,0
2017-12-11T04:34:10.896Z,0
2017-12-11T04:34:51.468Z,0
2017-12-11T04:35:31.993Z,0
2017-12-11T04:36:12.565Z,0
2017-12-11T04:36:53.087Z,0
2017-12-11T04:37:33.610Z,0
2017-12-11T04:38:14.154Z,0
2017-12-11T04:38:54.698Z,0
2017-12-11T04:39:35.280Z,0
2017-12-11T04:40:15.811Z,0
2017-12-11T04:40:56.322Z,0
2017-12-11T04:41:36.864Z,0
2017-12-11T04:42:17.422Z,0
2017-12-11T04:42:57.973Z,0
2017-12-11T04:43:38.508Z,0
2017-12-11T04:44:19.025Z,0
2017-12-11T04:44:59.552Z,0
2017-12-11T04:45:40.128Z,0
2017-12-11T04:46:20.658Z,0
2017-12-11T04:47:01.191Z,0
2017-12-11T04:47:41.733Z,0
2017-12-11T04:48:22.297Z,0
2017-12-11T04:49:02.791Z,0
2017-12-11T04:49:43.359Z,0
2017-12-11T04:50:23.898Z,0
2017-12-11T04:51:04.451Z,0
2017-12-11T04:51:44.954Z,0
2017-12-11T04:52:25.498Z,0
2017-12-11T04:53:06.012Z,0
2017-12-11T04:53:46.568Z,0
2017-12-11T04:54:27.113Z,0
2017-12-11T04:55:07.630Z,0
2017-12-11T04:55:48.159Z,0
2017-12-11T04:56:28.689Z,0
2017-12-11T04:57:09.226Z,0
2017-12-11T04:57:49.740Z,0
2017-12-11T04:58:30.310Z,0
2017-12-11T04:59:10.848Z,0
2017-12-11T04:59:51.372Z,0
2017-12-11T05:00:31.884Z,0
2017-12-11T05:01:12.436Z,0
2017-12-11T05:01:53.042Z,0
2017-12-11T05:02:33.500Z,0
2017-12-11T05:03:14.055Z,0
2017-12-11T05:03:54.595Z,0
2017-12-11T05:04:35.125Z,0
2017-12-11T05:05:15.701Z,0
2017-12-11T05:05:56.206Z,0
2017-12-11T05:06:36.744Z,0
2017-12-11T05:07:17.299Z,0
2017-12-11T05:07:57.842Z,0
2017-12-11T05:08:38.402Z,0
2017-12-11T05:09:18.948Z,0
2017-12-11T05:09:59.501Z,0
2017-12-11T05:10:40.047Z,0
2017-12-11T05:11:20.567Z,0
2017-12-11T05:12:01.134Z,0
2017-12-11T05:12:41.678Z,0
2017-12-11T05:13:22.204Z,0
2017-12-11T05:14:02.759Z,0
2017-12-11T05:14:43.305Z,0
2017-12-11T05:15:23.931Z,0
2017-12-11T05:16:04.473Z,0
2017-12-11T05:16:45.033Z,0
2017-12-11T05:17:25.585Z,0
2017-12-11T05:18:06.114Z,0
2017-12-11T05:18:46.673Z,0
2017-12-11T05:19:27.169Z,0
2017-12-11T05:20:07.718Z,0
2017-12-11T05:20:48.262Z,0
2017-12-11T05:21:28.783Z,0
2017-12-11T05:22:09.316Z,0
2017-12-11T05:22:49.882Z,0
2017-12-11T05:23:30.458Z,0
2017-12-11T05:24:11.043Z,0
2017-12-11T05:24:51.570Z,0
2017-12-11T05:25:32.116Z,0
2017-12-11T05:26:12.650Z,0
2017-12-11T05:26:53.208Z,0
2017-12-11T05:27:33.707Z,0
2017-12-11T05:28:14.296Z,0
2017-12-11T05:28:54.760Z,0
2017-12-11T05:29:35.293Z,0
2017-12-11T05:30:15.830Z,0
2017-12-11T05:30:56.350Z,0
2017-12-11T05:31:36.893Z,0
2017-12-11T05:32:17.431Z,0
2017-12-11T05:32:57.925Z,0
2017-12-11T05:33:38.490Z,0
2017-12-11T05:34:19.104Z,0
2017-12-11T05:35:00.399Z,0
2017-12-11T05:35:40.155Z,0
2017-12-11T05:36:20.707Z,0
2017-12-11T05:37:01.201Z,0
2017-12-11T05:37:41.762Z,0
2017-12-11T05:38:22.300Z,0
2017-12-11T05:39:02.809Z,0
2017-12-11T05:39:43.358Z,0
2017-12-11T05:40:23.927Z,0
2017-12-11T05:41:04.453Z,0
2017-12-11T05:41:45.015Z,0
2017-12-11T05:42:25.537Z,0
2017-12-11T05:43:06.081Z,0
2017-12-11T05:43:46.641Z,0
2017-12-11T05:44:27.176Z,0
2017-12-11T05:45:07.691Z,0
2017-12-11T05:45:48.227Z,0
2017-12-11T05:46:28.776Z,0
2017-12-11T05:47:09.322Z,0
2017-12-11T05:47:49.896Z,0
2017-12-11T05:48:30.422Z,0
2017-12-11T05:49:10.961Z,0
2017-12-11T05:49:51.490Z,0
2017-12-11T05:50:31.978Z,0
2017-12-11T05:51:12.516Z,0
2017-12-11T05:51:53.039Z,0
2017-12-11T05:52:33.555Z,0
2017-12-11T05:53:14.107Z,0
2017-12-11T05:53:54.623Z,0
2017-12-11T05:54:35.141Z,0
2017-12-11T05:55:15.708Z,0
2017-12-11T05:55:56.213Z,0
2017-12-11T05:56:36.771Z,0
2017-12-11T05:57:17.330Z,0
2017-12-11T05:57:57.839Z,0
2017-12-11T05:58:38.363Z,0
2017-12-11T05:59:18.922Z,0
2017-12-11T05:59:59.421Z,0
2017-12-11T06:00:39.947Z,0
2017-12-11T06:01:20.488Z,0
2017-12-11T06:02:01.080Z,0
2017-12-11T06:02:41.623Z,0
2017-12-11T06:03:22.194Z,0
2017-12-11T06:04:02.667Z,0
2017-12-11T06:04:43.221Z,0
2017-12-11T06:05:23.720Z,0
2017-12-11T06:06:04.250Z,0
2017-12-11T06:06:44.765Z,0
2017-12-11T06:07:25.306Z,0
2017-12-11T06:08:05.833Z,0
2017-12-11T06:08:46.393Z,0
2017-12-11T06:09:26.939Z,0
2017-12-11T06:10:07.464Z,0
2017-12-11T06:10:48.020Z,0
2017-12-11T06:11:28.546Z,0
2017-12-11T06:12:09.124Z,0
2017-12-11T06:12:49.632Z,0
2017-12-11T06:13:30.141Z,0
2017-12-11T06:14:10.663Z,0
2017-12-11T06:14:51.241Z,0
2017-12-11T06:15:31.771Z,0
2017-12-11T06:16:12.283Z,0
2017-12-11T06:16:52.823Z,0
2017-12-11T06:17:33.366Z,0
2017-12-11T06:18:13.870Z,0
2017-12-11T06:18:54.410Z,0
2017-12-11T06:19:34.957Z,0
2017-12-11T06:20:15.554Z,0
2017-12-11T06:20:56.064Z,0
2017-12-11T06:21:36.631Z,0
2017-12-11T06:22:17.143Z,0
2017-12-11T06:22:57.695Z,0
2017-12-11T06:23:38.245Z,0
2017-12-11T06:24:18.775Z,0
2017-12-11T06:24:59.319Z,0
2017-12-11T06:25:39.878Z,0
2017-12-11T06:26:20.452Z,0
2017-12-11T06:27:00.989Z,0
2017-12-11T06:27:41.544Z,0
2017-12-11T06:28:22.391Z,0
2017-12-11T06:29:02.949Z,0
2017-12-11T06:29:43.453Z,0
2017-12-11T06:30:24.078Z,0
2017-12-11T06:31:04.598Z,0
2017-12-11T06:31:45.229Z,0
2017-12-11T06:32:25.732Z,0
2017-12-11T06:33:06.314Z,0
2017-12-11T06:33:46.821Z,0
2017-12-11T06:34:27.397Z,0
2017-12-11T06:35:08.102Z,0
2017-12-11T06:35:48.736Z,0
2017-12-11T06:36:29.177Z,0
2017-12-11T06:37:09.759Z,0
2017-12-11T06:37:50.336Z,0
2017-12-11T06:38:30.912Z,0
2017-12-11T06:39:11.365Z,0
2017-12-11T06:39:52.057Z,0
2017-12-11T06:40:32.604Z,0
2017-12-11T06:41:13.273Z,0
2017-12-11T06:41:53.717Z,0
2017-12-11T06:42:34.263Z,0
2017-12-11T06:43:14.808Z,0
2017-12-11T06:43:55.340Z,0
2017-12-11T06:44:35.877Z,0
2017-12-11T06:45:16.411Z,0
2017-12-11T06:45:56.914Z,0
2017-12-11T06:46:37.446Z,0
2017-12-11T06:47:18.046Z,0
2017-12-11T06:47:58.564Z,0
2017-12-11T06:48:39.133Z,0
2017-12-11T06:49:19.630Z,0
2017-12-11T06:50:00.177Z,0
2017-12-11T06:50:40.771Z,4
2017-12-11T06:51:21.291Z,4
2017-12-11T06:52:01.807Z,4
2017-12-11T06:52:42.382Z,4
2017-12-11T06:53:22.842Z,4
2017-12-11T06:54:03.406Z,4
2017-12-11T06:54:43.943Z,4
2017-12-11T06:55:24.564Z,4
2017-12-11T06:56:05.072Z,0
2017-12-11T06:56:45.574Z,4
2017-12-11T06:57:26.148Z,4
2017-12-11T06:58:06.645Z,4
2017-12-11T06:58:47.235Z,4
2017-12-11T06:59:27.880Z,4
2017-12-11T07:00:08.441Z,4
2017-12-11T07:00:49.136Z,8
2017-12-11T07:01:29.725Z,8
2017-12-11T07:02:10.208Z,4
2017-12-11T07:02:50.889Z,4
2017-12-11T07:03:31.497Z,4
2017-12-11T07:04:12.022Z,8
2017-12-11T07:04:52.514Z,8
2017-12-11T07:05:33.061Z,8
2017-12-11T07:06:13.648Z,8
2017-12-11T07:06:54.220Z,12
2017-12-11T07:07:34.992Z,8
2017-12-11T07:08:15.504Z,8
2017-12-11T07:08:56.045Z,12
2017-12-11T07:09:36.576Z,12
2017-12-11T07:10:17.127Z,12
2017-12-11T07:10:57.692Z,12
2017-12-11T07:11:38.262Z,12
2017-12-11T07:12:18.907Z,12
2017-12-11T07:12:59.434Z,16
2017-12-11T07:13:40.006Z,16
2017-12-11T07:14:20.516Z,12
2017-12-11T07:15:01.044Z,12
2017-12-11T07:15:41.620Z,12
2017-12-11T07:16:22.161Z,12
2017-12-11T07:17:02.747Z,16
2017-12-11T07:17:43.336Z,16
2017-12-11T07:18:23.849Z,20
2017-12-11T07:19:04.646Z,20
2017-12-11T07:19:45.197Z,16
2017-12-11T07:20:25.677Z,16
2017-12-11T07:21:06.279Z,24
2017-12-11T07:21:46.814Z,20
2017-12-11T07:22:27.330Z,24
2017-12-11T07:23:07.966Z,24
2017-12-11T07:23:48.600Z,24
2017-12-11T07:24:29.149Z,24
2017-12-11T07:25:09.665Z,28
2017-12-11T07:25:50.192Z,32
2017-12-11T07:26:30.776Z,32
2017-12-11T07:27:11.386Z,32
2017-12-11T07:27:51.889Z,36
2017-12-11T07:28:32.503Z,32
2017-12-11T07:29:13.028Z,32
2017-12-11T07:29:53.560Z,32
2017-12-11T07:30:34.143Z,36
2017-12-11T07:31:14.678Z,36
2017-12-11T07:31:55.303Z,40
2017-12-11T07:32:35.780Z,40
2017-12-11T07:33:16.346Z,40
2017-12-11T07:33:57.023Z,44
2017-12-11T07:34:37.549Z,40
2017-12-11T07:35:18.069Z,44
2017-12-11T07:35:58.591Z,40
2017-12-11T07:36:39.164Z,44
2017-12-11T07:37:19.750Z,48
2017-12-11T07:38:00.291Z,48
2017-12-11T07:38:40.833Z,52
2017-12-11T07:39:21.396Z,52
2017-12-11T07:40:01.922Z,56
2017-12-11T07:40:42.512Z,56
2017-12-11T07:41:23.116Z,60
2017-12-11T07:42:03.604Z,60
2017-12-11T07:42:44.151Z,60
2017-12-11T07:43:24.740Z,64
2017-12-11T07:44:05.363Z,68
2017-12-11T07:44:45.901Z,72
2017-12-11T07:45:26.488Z,76
2017-12-11T07:46:07.129Z,80
2017-12-11T07:46:47.535Z,80
2017-12-11T07:47:28.077Z,76
2017-12-11T07:48:08.694Z,80
2017-12-11T07:48:49.199Z,84
2017-12-11T07:49:29.687Z,84
2017-12-11T07:50:10.254Z,88
2017-12-11T07:50:50.813Z,92
2017-12-11T07:51:31.345Z,92
2017-12-11T07:52:11.875Z,96
2017-12-11T07:52:52.464Z,100
2017-12-11T07:53:33.003Z,104
2017-12-11T07:54:13.551Z,112
2017-12-11T07:54:54.193Z,112
2017-12-11T07:55:34.733Z,112
2017-12-11T07:56:15.244Z,116
2017-12-11T07:56:55.900Z,120
2017-12-11T07:57:36.392Z,120
2017-12-11T07:58:16.905Z,120
2017-12-11T07:58:57.425Z,124
2017-12-11T07:59:37.988Z,128
2017-12-11T08:00:18.572Z,140
2017-12-11T08:00:59.171Z,148
2017-12-11T08:01:39.673Z,164
2017-12-11T08:02:20.227Z,168
2017-12-11T08:03:00.783Z,176
2017-12-11T08:03:41.380Z,176
2017-12-11T08:04:21.897Z,180
2017-12-11T08:05:02.421Z,184
2017-12-11T08:05:42.978Z,188
2017-12-11T08:06:23.488Z,192
2017-12-11T08:07:04.006Z,200
2017-12-11T08:07:44.540Z,204
2017-12-11T08:08:25.108Z,212
2017-12-11T08:09:05.641Z,216
2017-12-11T08:09:46.259Z,208
2017-12-11T08:10:26.747Z,216
2017-12-11T08:11:07.309Z,216
2017-12-11T08:11:47.866Z,220
2017-12-11T08:12:28.351Z,224
2017-12-11T08:13:09.128Z,228
2017-12-11T08:13:49.694Z,232
2017-12-11T08:14:30.234Z,240
2017-12-11T08:15:10.843Z,244
2017-12-11T08:15:51.387Z,256
2017-12-11T08:16:31.962Z,256
2017-12-11T08:17:12.520Z,260
2017-12-11T08:17:53.038Z,268
2017-12-11T08:18:33.566Z,280
2017-12-11T08:19:14.132Z,288
2017-12-11T08:19:54.652Z,284
2017-12-11T08:20:35.194Z,272
2017-12-11T08:21:15.742Z,256
2017-12-11T08:21:56.232Z,252
2017-12-11T08:22:36.837Z,244
2017-12-11T08:23:17.380Z,228
2017-12-11T08:23:57.955Z,228
2017-12-11T08:24:38.464Z,236
2017-12-11T08:25:18.971Z,220
2017-12-11T08:25:59.567Z,216
2017-12-11T08:26:40.098Z,212
2017-12-11T08:27:20.670Z,204
2017-12-11T08:28:01.292Z,208
2017-12-11T08:28:41.822Z,200
2017-12-11T08:29:22.438Z,196
2017-12-11T08:30:02.991Z,192
2017-12-11T08:30:43.498Z,192
2017-12-11T08:31:24.019Z,196
2017-12-11T08:32:04.587Z,204
2017-12-11T08:32:45.171Z,208
2017-12-11T08:33:25.673Z,200
2017-12-11T08:34:06.264Z,196
2017-12-11T08:34:46.828Z,204
2017-12-11T08:35:27.368Z,196
2017-12-11T08:36:07.925Z,196
2017-12-11T08:36:48.485Z,200
2017-12-11T08:37:28.994Z,204
2017-12-11T08:38:09.504Z,204
2017-12-11T08:38:50.039Z,200
2017-12-11T08:39:30.560Z,192
2017-12-11T08:40:11.112Z,196
2017-12-11T08:40:51.681Z,196
2017-12-11T08:41:32.168Z,208
2017-12-11T08:42:12.792Z,200
2017-12-11T08:42:53.274Z,188
2017-12-11T08:43:33.928Z,184
2017-12-11T08:44:14.443Z,184
2017-12-11T08:44:54.998Z,184
2017-12-11T08:45:35.494Z,196
2017-12-11T08:46:16.012Z,216
2017-12-11T08:46:56.569Z,228
2017-12-11T08:47:37.097Z,228
2017-12-11T08:48:17.657Z,236
2017-12-11T08:48:58.250Z,240
2017-12-11T08:49:38.804Z,244
2017-12-11T08:50:19.308Z,240
2017-12-11T08:50:59.862Z,244
2017-12-11T08:51:40.392Z,248
2017-12-11T08:52:20.959Z,252
2017-12-11T08:53:01.516Z,248
2017-12-11T08:53:42.012Z,240
2017-12-11T08:54:22.617Z,236
2017-12-11T08:55:03.151Z,236
2017-12-11T08:55:43.735Z,244
2017-12-11T08:56:24.215Z,260
2017-12-11T08:57:04.701Z,272
2017-12-11T08:57:45.299Z,272
2017-12-11T08:58:25.930Z,276
2017-12-11T08:59:06.470Z,288
2017-12-11T08:59:47.007Z,296
2017-12-11T09:00:27.558Z,296
2017-12-11T09:01:08.111Z,304
2017-12-11T09:01:48.670Z,304
2017-12-11T09:02:29.238Z,300
2017-12-11T09:03:09.792Z,312
2017-12-11T09:03:50.347Z,308
2017-12-11T09:04:30.871Z,308
2017-12-11T09:05:11.407Z,308
2017-12-11T09:05:51.994Z,296
2017-12-11T09:06:32.515Z,296
2017-12-11T09:07:13.131Z,296
2017-12-11T09:07:53.632Z,296
2017-12-11T09:08:34.189Z,300
2017-12-11T09:09:14.712Z,308
2017-12-11T09:09:55.203Z,304
2017-12-11T09:10:35.793Z,304
2017-12-11T09:11:16.349Z,308
2017-12-11T09:11:56.853Z,316
2017-12-11T09:12:37.384Z,324
2017-12-11T09:13:17.892Z,336
2017-12-11T09:13:58.398Z,352
2017-12-11T09:14:39.146Z,352
2017-12-11T09:15:19.728Z,360
2017-12-11T09:16:00.248Z,360
2017-12-11T09:16:40.870Z,372
2017-12-11T09:17:21.448Z,392
2017-12-11T09:18:01.978Z,396
2017-12-11T09:18:42.547Z,416
2017-12-11T09:19:23.049Z,416
2017-12-11T09:20:03.726Z,428
2017-12-11T09:20:44.280Z,440
2017-12-11T09:21:24.860Z,444
2017-12-11T09:22:05.389Z,444
2017-12-11T09:22:45.936Z,448
2017-12-11T09:23:26.536Z,456
2017-12-11T09:24:07.064Z,456
2017-12-11T09:24:47.602Z,464
2017-12-11T09:25:28.126Z,472
2017-12-11T09:26:08.627Z,512
2017-12-11T09:26:49.199Z,540
2017-12-11T09:27:29.782Z,548
2017-12-11T09:28:10.326Z,532
2017-12-11T09:28:50.868Z,524
2017-12-11T09:29:31.372Z,524
2017-12-11T09:30:11.945Z,528
2017-12-11T09:30:52.471Z,532
2017-12-11T09:31:33.070Z,536
2017-12-11T09:32:13.566Z,560
2017-12-11T09:32:54.107Z,560
2017-12-11T09:33:34.625Z,568
2017-12-11T09:34:15.311Z,576
2017-12-11T09:34:55.788Z,564
2017-12-11T09:35:36.343Z,564
2017-12-11T09:36:16.880Z,564
2017-12-11T09:36:57.419Z,580
2017-12-11T09:37:37.948Z,596
2017-12-11T09:38:18.460Z,600
2017-12-11T09:38:58.987Z,608
2017-12-11T09:39:39.528Z,588
2017-12-11T09:40:20.075Z,572
2017-12-11T09:41:00.674Z,544
2017-12-11T09:41:41.274Z,512
2017-12-11T09:42:21.811Z,488
2017-12-11T09:43:02.436Z,484
2017-12-11T09:43:43.032Z,492
2017-12-11T09:44:23.548Z,512
2017-12-11T09:45:04.085Z,532
2017-12-11T09:45:44.650Z,544
2017-12-11T09:46:25.204Z,532
2017-12-11T09:47:05.714Z,512
2017-12-11T09:47:46.304Z,500
2017-12-11T09:48:26.804Z,484
2017-12-11T09:49:07.354Z,472